createdAt,value
2018-06-24T00:00:28.398Z,15.60
2018-06-24T00:02:56.009Z,15.60
2018-06-24T00:05:23.605Z,15.50
2018-06-24T00:07:51.716Z,15.50
2018-06-24T00:10:19.479Z,15.50
2018-06-24T00:12:47.163Z,15.50
2018-06-24T00:15:14.782Z,15.40
2018-06-24T00:17:42.371Z,15.40
2018-06-24T00:20:09.948Z,15.30
2018-06-24T00:22:37.563Z,15.30
2018-06-24T00:25:05.195Z,15.40
2018-06-24T00:27:32.807Z,15.40
2018-06-24T00:30:00.531Z,15.40
2018-06-24T00:32:28.228Z,15.40
2018-06-24T00:34:56.047Z,15.40
2018-06-24T00:37:23.723Z,15.40
2018-06-24T00:39:51.510Z,15.40
2018-06-24T00:44:46.582Z,15.50
2018-06-24T00:47:14.172Z,15.50
2018-06-24T00:49:41.759Z,15.50
2018-06-24T00:52:09.427Z,15.50
2018-06-24T00:54:37.040Z,15.50
2018-06-24T00:57:04.695Z,15.50
2018-06-24T00:59:43.732Z,15.50
2018-06-24T01:02:11.312Z,15.40
2018-06-24T01:04:39.049Z,15.40
2018-06-24T01:07:06.746Z,15.40
2018-06-24T01:09:34.567Z,15.40
2018-06-24T01:12:02.464Z,15.30
2018-06-24T01:14:30.088Z,15.30
2018-06-24T01:16:57.833Z,15.20
2018-06-24T01:19:25.499Z,15.30
2018-06-24T01:21:53.158Z,15.30
2018-06-24T01:24:20.742Z,15.30
2018-06-24T01:26:48.313Z,15.20
2018-06-24T01:29:15.915Z,15.30
2018-06-24T01:31:43.527Z,15.30
2018-06-24T01:34:11.084Z,15.20
2018-06-24T01:36:38.689Z,15.30
2018-06-24T01:41:33.948Z,15.30
2018-06-24T01:44:01.843Z,15.30
2018-06-24T01:46:29.414Z,15.30
2018-06-24T01:48:56.995Z,15.30
2018-06-24T01:51:24.596Z,15.30
2018-06-24T01:53:52.240Z,15.30
2018-06-24T01:56:19.828Z,15.20
2018-06-24T01:58:47.402Z,15.30
2018-06-24T02:01:15.044Z,15.30
2018-06-24T02:03:43.013Z,15.20
2018-06-24T02:06:10.832Z,15.20
2018-06-24T02:08:38.631Z,15.20
2018-06-24T02:11:06.337Z,15.20
2018-06-24T02:13:33.948Z,15.20
2018-06-24T02:16:01.804Z,15.10
2018-06-24T02:18:29.420Z,15.10
2018-06-24T02:20:57.043Z,15.00
2018-06-24T02:23:24.642Z,15.00
2018-06-24T02:25:52.268Z,14.90
2018-06-24T02:28:19.957Z,14.80
2018-06-24T02:30:47.601Z,14.80
2018-06-24T02:33:15.300Z,14.70
2018-06-24T02:35:43.076Z,14.70
2018-06-24T02:38:11.451Z,14.60
2018-06-24T02:40:39.103Z,14.60
2018-06-24T02:43:06.749Z,14.50
2018-06-24T02:45:34.414Z,14.50
2018-06-24T02:48:02.933Z,14.50
2018-06-24T02:50:30.635Z,14.40
2018-06-24T02:55:25.834Z,14.40
2018-06-24T02:57:53.469Z,14.50
2018-06-24T03:00:21.282Z,14.50
2018-06-24T03:02:48.940Z,14.50
2018-06-24T03:05:16.661Z,14.60
2018-06-24T03:07:44.604Z,14.60
2018-06-24T03:10:12.348Z,14.60
2018-06-24T03:12:40.188Z,14.50
2018-06-24T03:15:07.901Z,14.40
2018-06-24T03:17:35.494Z,14.40
2018-06-24T03:20:03.328Z,14.40
2018-06-24T03:22:30.957Z,14.40
2018-06-24T03:24:58.579Z,14.40
2018-06-24T03:27:26.528Z,14.30
2018-06-24T03:29:54.198Z,14.30
2018-06-24T03:32:22.016Z,14.30
2018-06-24T03:34:49.809Z,14.30
2018-06-24T03:37:17.512Z,14.20
2018-06-24T03:39:45.165Z,14.20
2018-06-24T03:42:12.888Z,14.10
2018-06-24T03:44:40.513Z,14.10
2018-06-24T03:47:08.160Z,14.10
2018-06-24T03:49:35.815Z,14.10
2018-06-24T03:52:03.603Z,14.00
2018-06-24T03:54:31.304Z,14.00
2018-06-24T03:56:58.940Z,14.00
2018-06-24T03:59:26.676Z,13.90
2018-06-24T04:01:54.777Z,14.00
2018-06-24T04:04:22.506Z,14.00
2018-06-24T04:06:50.480Z,14.00
2018-06-24T04:09:18.220Z,14.00
2018-06-24T04:11:45.833Z,14.00
2018-06-24T04:14:13.652Z,14.00
2018-06-24T04:16:41.324Z,14.00
2018-06-24T04:19:09.137Z,14.00
2018-06-24T04:21:36.659Z,14.00
2018-06-24T04:24:04.570Z,14.00
2018-06-24T04:26:32.187Z,14.10
2018-06-24T04:28:59.876Z,14.10
2018-06-24T04:31:27.525Z,14.10
2018-06-24T04:33:55.053Z,14.10
2018-06-24T04:36:22.607Z,14.10
2018-06-24T04:38:50.247Z,14.00
2018-06-24T04:41:17.803Z,14.10
2018-06-24T04:43:45.370Z,14.20
2018-06-24T04:46:12.928Z,14.20
2018-06-24T04:48:40.474Z,14.40
2018-06-24T04:51:08.049Z,14.70
2018-06-24T04:53:35.872Z,15.00
2018-06-24T04:56:03.856Z,15.30
2018-06-24T05:00:58.963Z,15.80
2018-06-24T05:03:26.488Z,15.90
2018-06-24T05:05:54.069Z,16.20
2018-06-24T05:08:21.656Z,16.40
2018-06-24T05:10:49.197Z,16.60
2018-06-24T05:13:16.779Z,16.70
2018-06-24T05:15:44.356Z,16.90
2018-06-24T05:18:11.979Z,16.90
2018-06-24T05:20:39.579Z,16.90
2018-06-24T05:23:07.211Z,16.90
2018-06-24T05:25:34.790Z,16.90
2018-06-24T05:28:02.393Z,17.00
2018-06-24T05:30:29.980Z,17.30
2018-06-24T05:32:58.039Z,17.80
2018-06-24T05:35:25.632Z,18.10
2018-06-24T05:37:53.302Z,18.10
2018-06-24T05:40:20.839Z,18.00
2018-06-24T05:42:48.475Z,17.80
2018-06-24T05:45:16.441Z,17.80
2018-06-24T05:47:44.571Z,17.70
2018-06-24T05:50:13.017Z,17.70
2018-06-24T05:52:40.743Z,17.60
2018-06-24T05:55:08.384Z,17.50
2018-06-24T05:57:35.934Z,17.50
2018-06-24T06:00:04.012Z,17.60
2018-06-24T06:02:32.226Z,17.90
2018-06-24T06:04:59.953Z,18.30
2018-06-24T06:07:27.578Z,18.80
2018-06-24T06:09:55.174Z,19.30
2018-06-24T06:12:22.832Z,19.70
2018-06-24T06:14:50.531Z,19.80
2018-06-24T06:17:18.167Z,20.10
2018-06-24T06:19:46.386Z,20.30
2018-06-24T06:22:15.280Z,20.40
2018-06-24T06:24:42.874Z,20.60
2018-06-24T06:27:10.515Z,21.00
2018-06-24T06:29:38.069Z,21.50
2018-06-24T06:32:05.772Z,21.90
2018-06-24T06:34:33.388Z,22.20
2018-06-24T06:37:01.337Z,22.20
2018-06-24T06:39:28.968Z,21.80
2018-06-24T06:41:56.627Z,21.30
2018-06-24T06:44:24.566Z,20.90
2018-06-24T06:46:52.290Z,20.50
2018-06-24T06:49:20.040Z,20.20
2018-06-24T06:51:47.778Z,20.10
2018-06-24T06:54:15.333Z,20.10
2018-06-24T06:56:42.968Z,20.20
2018-06-24T06:59:10.561Z,20.40
2018-06-24T07:01:38.156Z,20.70
2018-06-24T07:04:05.747Z,20.70
2018-06-24T07:06:33.316Z,20.50
2018-06-24T07:09:00.898Z,20.20
2018-06-24T07:11:29.180Z,19.90
2018-06-24T07:13:57.148Z,19.80
2018-06-24T07:16:25.770Z,19.60
2018-06-24T07:18:53.512Z,19.50
2018-06-24T07:21:21.157Z,19.40
2018-06-24T07:23:48.738Z,19.50
2018-06-24T07:26:16.351Z,19.70
2018-06-24T07:28:44.092Z,19.90
2018-06-24T07:31:11.728Z,20.20
2018-06-24T07:33:39.397Z,20.30
2018-06-24T07:38:34.540Z,20.90
2018-06-24T07:41:02.213Z,21.20
2018-06-24T07:43:29.791Z,21.30
2018-06-24T07:45:57.403Z,21.40
2018-06-24T07:48:25.031Z,21.10
2018-06-24T07:50:52.635Z,20.90
2018-06-24T07:53:23.052Z,21.00
2018-06-24T07:55:50.696Z,21.20
2018-06-24T07:58:18.323Z,21.60
2018-06-24T08:00:45.909Z,22.00
2018-06-24T08:03:13.791Z,22.70
2018-06-24T08:05:41.412Z,23.80
2018-06-24T08:08:09.406Z,24.40
2018-06-24T08:10:37.069Z,24.80
2018-06-24T08:13:05.008Z,24.60
2018-06-24T08:15:32.636Z,24.30
2018-06-24T08:18:00.325Z,24.30
2018-06-24T08:20:27.952Z,24.30
2018-06-24T08:22:55.577Z,24.80
2018-06-24T08:25:23.394Z,25.40
2018-06-24T08:27:51.019Z,26.10
2018-06-24T08:30:20.787Z,26.60
2018-06-24T08:32:48.410Z,27.20
2018-06-24T08:35:15.984Z,27.50
2018-06-24T08:37:43.728Z,27.50
2018-06-24T08:40:11.332Z,28.00
2018-06-24T08:42:39.013Z,28.80
2018-06-24T08:45:08.421Z,29.10
2018-06-24T08:47:36.264Z,29.00
2018-06-24T08:50:04.570Z,29.00
2018-06-24T08:52:32.412Z,29.10
2018-06-24T08:54:59.988Z,29.60
2018-06-24T08:57:27.540Z,30.60
2018-06-24T08:59:55.186Z,30.30
2018-06-24T09:02:22.933Z,29.80
2018-06-24T09:04:51.677Z,29.70
2018-06-24T09:07:19.259Z,29.30
2018-06-24T09:09:46.906Z,28.60
2018-06-24T09:12:14.585Z,27.70
2018-06-24T09:14:42.193Z,26.70
2018-06-24T09:17:09.858Z,25.90
2018-06-24T09:19:37.416Z,25.90
2018-06-24T09:22:05.081Z,26.00
2018-06-24T09:24:32.675Z,26.30
2018-06-24T09:27:00.236Z,27.20
2018-06-24T09:29:27.851Z,29.10
2018-06-24T09:31:55.532Z,29.90
2018-06-24T09:34:23.255Z,30.70
2018-06-24T09:36:50.988Z,31.50
2018-06-24T09:39:18.668Z,32.00
2018-06-24T09:41:46.522Z,31.00
2018-06-24T09:46:41.609Z,30.00
2018-06-24T09:49:09.323Z,30.30
2018-06-24T09:51:36.920Z,32.70
2018-06-24T09:54:04.877Z,33.30
2018-06-24T09:56:32.561Z,32.00
2018-06-24T09:59:00.213Z,31.60
2018-06-24T10:01:27.814Z,32.50
2018-06-24T10:03:55.972Z,31.70
2018-06-24T10:08:52.132Z,32.10
2018-06-24T10:11:20.041Z,34.20
2018-06-24T10:13:47.648Z,33.50
2018-06-24T10:16:15.264Z,33.30
2018-06-24T10:18:42.888Z,34.50
2018-06-24T10:21:10.494Z,35.70
2018-06-24T10:23:38.151Z,34.40
2018-06-24T10:26:05.868Z,34.60
2018-06-24T10:28:33.755Z,36.50
2018-06-24T10:31:01.380Z,38.30
2018-06-24T10:33:29.020Z,39.50
2018-06-24T10:35:56.847Z,39.10
2018-06-24T10:38:24.513Z,38.30
2018-06-24T10:40:52.290Z,37.00
2018-06-24T10:43:19.890Z,35.70
2018-06-24T10:45:47.477Z,35.90
2018-06-24T10:48:15.079Z,36.30
2018-06-24T10:50:43.448Z,35.80
2018-06-24T10:53:11.127Z,35.20
2018-06-24T10:55:38.765Z,34.50
2018-06-24T10:58:06.544Z,33.70
2018-06-24T11:00:34.929Z,33.30
2018-06-24T11:03:02.836Z,32.90
2018-06-24T11:05:30.752Z,32.60
2018-06-24T11:07:58.544Z,31.60
2018-06-24T11:10:26.344Z,31.30
2018-06-24T11:12:53.967Z,31.20
2018-06-24T11:15:25.209Z,31.40
2018-06-24T11:17:53.138Z,31.60
2018-06-24T11:20:22.612Z,31.40
2018-06-24T11:22:51.138Z,30.60
2018-06-24T11:25:18.686Z,30.10
2018-06-24T11:27:46.359Z,29.60
2018-06-24T11:30:14.136Z,29.60
2018-06-24T11:32:41.797Z,29.70
2018-06-24T11:35:09.779Z,29.70
2018-06-24T11:37:37.578Z,29.60
2018-06-24T11:40:05.275Z,29.40
2018-06-24T11:42:32.908Z,29.20
2018-06-24T11:45:00.490Z,29.30
2018-06-24T11:47:28.179Z,29.20
2018-06-24T11:49:55.792Z,29.10
2018-06-24T11:52:23.390Z,29.10
2018-06-24T11:54:51.019Z,29.10
2018-06-24T11:57:18.636Z,28.80
2018-06-24T11:59:46.240Z,28.40
2018-06-24T12:02:15.508Z,28.00
2018-06-24T12:04:43.229Z,27.90
2018-06-24T12:07:10.908Z,27.60
2018-06-24T12:09:38.590Z,27.30
2018-06-24T12:12:06.156Z,27.40
2018-06-24T12:14:33.778Z,27.70
2018-06-24T12:17:01.496Z,27.90
2018-06-24T12:19:29.043Z,27.90
2018-06-24T12:21:56.874Z,27.80
2018-06-24T12:24:25.032Z,27.90
2018-06-24T12:26:52.637Z,27.90
2018-06-24T12:29:20.233Z,28.00
2018-06-24T12:31:47.921Z,28.20
2018-06-24T12:34:15.658Z,28.40
2018-06-24T12:36:43.280Z,28.00
2018-06-24T12:39:13.828Z,27.70
2018-06-24T12:41:41.482Z,27.40
2018-06-24T12:44:09.497Z,27.20
2018-06-24T12:46:37.331Z,27.10
2018-06-24T12:49:05.729Z,27.00
2018-06-24T12:51:33.492Z,26.80
2018-06-24T12:54:01.249Z,26.60
2018-06-24T12:56:30.120Z,26.40
2018-06-24T12:58:57.821Z,26.20
2018-06-24T13:01:25.340Z,26.20
2018-06-24T13:03:53.564Z,26.10
2018-06-24T13:06:21.286Z,26.00
2018-06-24T13:08:48.974Z,25.90
2018-06-24T13:11:16.642Z,25.70
2018-06-24T13:13:44.251Z,25.70
2018-06-24T13:16:11.873Z,25.70
2018-06-24T13:18:39.525Z,25.70
2018-06-24T13:21:07.156Z,25.70
2018-06-24T13:23:34.742Z,25.70
2018-06-24T13:26:02.404Z,25.60
2018-06-24T13:28:30.058Z,25.60
2018-06-24T13:30:57.827Z,25.60
2018-06-24T13:33:25.604Z,25.60
2018-06-24T13:35:53.307Z,25.50
2018-06-24T13:38:21.001Z,25.60
2018-06-24T13:40:48.669Z,25.40
2018-06-24T13:43:16.298Z,25.40
2018-06-24T13:45:43.980Z,25.20
2018-06-24T13:48:11.586Z,25.10
2018-06-24T13:50:39.240Z,24.80
2018-06-24T13:53:06.968Z,24.70
2018-06-24T13:55:34.657Z,24.60
2018-06-24T13:58:02.437Z,24.40
2018-06-24T14:00:30.174Z,24.30
2018-06-24T14:02:57.846Z,24.30
2018-06-24T14:05:27.815Z,24.20
2018-06-24T14:07:55.680Z,24.10
2018-06-24T14:10:25.162Z,24.10
2018-06-24T14:12:52.821Z,24.30
2018-06-24T14:15:20.434Z,24.60
2018-06-24T14:17:48.083Z,24.80
2018-06-24T14:20:15.886Z,24.90
2018-06-24T14:22:43.624Z,24.70
2018-06-24T14:25:11.272Z,24.50
2018-06-24T14:27:38.926Z,24.00
2018-06-24T14:30:07.025Z,23.80
2018-06-24T14:32:34.894Z,23.70
2018-06-24T14:35:03.448Z,23.60
2018-06-24T14:37:31.365Z,23.60
2018-06-24T14:39:59.056Z,23.80
2018-06-24T14:42:26.664Z,24.00
2018-06-24T14:44:54.236Z,24.00
2018-06-24T14:47:21.802Z,23.90
2018-06-24T14:49:49.415Z,23.70
2018-06-24T14:52:17.288Z,23.50
2018-06-24T14:54:44.890Z,23.20
2018-06-24T14:57:12.728Z,23.00
2018-06-24T14:59:40.636Z,22.70
2018-06-24T15:02:08.446Z,22.50
2018-06-24T15:04:36.100Z,22.50
2018-06-24T15:07:03.797Z,22.40
2018-06-24T15:09:31.351Z,22.50
2018-06-24T15:11:58.998Z,22.40
2018-06-24T15:14:26.921Z,22.30
2018-06-24T15:16:54.523Z,22.10
2018-06-24T15:19:22.132Z,22.00
2018-06-24T15:21:49.745Z,21.80
2018-06-24T15:24:17.636Z,21.70
2018-06-24T15:26:45.445Z,21.60
2018-06-24T15:29:13.175Z,21.60
2018-06-24T15:31:40.831Z,21.90
2018-06-24T15:34:08.473Z,22.20
2018-06-24T15:36:36.083Z,22.60
2018-06-24T15:39:06.916Z,22.80
2018-06-24T15:41:34.672Z,23.10
2018-06-24T15:44:02.309Z,23.10
2018-06-24T15:46:29.997Z,23.20
2018-06-24T15:48:57.570Z,23.20
2018-06-24T15:51:25.177Z,23.10
2018-06-24T15:53:52.914Z,22.80
2018-06-24T15:56:20.508Z,22.60
2018-06-24T15:58:48.276Z,23.00
2018-06-24T16:01:16.032Z,22.70
2018-06-24T16:06:11.695Z,22.20
2018-06-24T16:08:39.400Z,22.00
2018-06-24T16:11:07.061Z,21.80
2018-06-24T16:13:35.022Z,21.60
2018-06-24T16:16:02.766Z,21.60
2018-06-24T16:18:30.761Z,21.50
2018-06-24T16:23:26.013Z,21.30
2018-06-24T16:25:53.804Z,21.20
2018-06-24T16:28:21.704Z,21.20
2018-06-24T16:30:49.475Z,21.20
2018-06-24T16:33:17.045Z,21.40
2018-06-24T16:35:44.690Z,21.50
2018-06-24T16:38:12.295Z,21.70
2018-06-24T16:40:39.997Z,21.90
2018-06-24T16:43:07.611Z,22.00
2018-06-24T16:45:35.153Z,21.90
2018-06-24T16:48:02.864Z,21.90
2018-06-24T16:50:30.648Z,21.80
2018-06-24T16:52:59.410Z,21.80
2018-06-24T16:55:29.215Z,21.60
2018-06-24T17:00:24.483Z,21.30
2018-06-24T17:02:52.152Z,21.20
2018-06-24T17:05:19.922Z,21.10
2018-06-24T17:07:47.821Z,21.00
2018-06-24T17:12:42.958Z,20.70
2018-06-24T17:15:10.626Z,20.60
2018-06-24T17:17:38.426Z,20.60
2018-06-24T17:20:06.073Z,20.60
2018-06-24T17:22:33.705Z,20.50
2018-06-24T17:25:01.364Z,20.50
2018-06-24T17:27:29.003Z,20.50
2018-06-24T17:29:56.670Z,20.40
2018-06-24T17:32:24.467Z,20.20
2018-06-24T17:34:52.129Z,20.10
2018-06-24T17:37:19.746Z,20.10
2018-06-24T17:39:47.497Z,20.10
2018-06-24T17:42:15.208Z,20.10
2018-06-24T17:44:42.868Z,20.10
2018-06-24T17:47:10.834Z,20.20
2018-06-24T17:49:40.480Z,20.20
2018-06-24T17:52:10.395Z,20.30
2018-06-24T17:54:38.669Z,20.30
2018-06-24T17:57:06.444Z,20.20
2018-06-24T17:59:34.524Z,20.20
2018-06-24T18:02:03.600Z,20.20
2018-06-24T18:04:31.372Z,20.10
2018-06-24T18:06:59.109Z,20.00
2018-06-24T18:09:27.137Z,20.00
2018-06-24T18:11:54.793Z,19.90
2018-06-24T18:14:22.692Z,19.90
2018-06-24T18:16:50.554Z,19.90
2018-06-24T18:19:18.192Z,19.90
2018-06-24T18:21:46.135Z,19.70
2018-06-24T18:24:16.199Z,19.70
2018-06-24T18:26:43.909Z,19.70
2018-06-24T18:29:12.137Z,19.70
2018-06-24T18:31:39.770Z,19.70
2018-06-24T18:34:07.462Z,19.70
2018-06-24T18:36:35.015Z,19.70
2018-06-24T18:39:02.797Z,19.70
2018-06-24T18:41:30.523Z,19.70
2018-06-24T18:43:58.187Z,19.60
2018-06-24T18:46:25.915Z,19.60
2018-06-24T18:48:53.808Z,19.60
2018-06-24T18:51:21.530Z,19.50
2018-06-24T18:53:49.273Z,19.50
2018-06-24T18:56:17.664Z,19.50
2018-06-24T18:58:45.711Z,19.40
2018-06-24T19:01:13.378Z,19.40
2018-06-24T19:03:41.076Z,19.40
2018-06-24T19:06:08.650Z,19.40
2018-06-24T19:08:36.292Z,19.40
2018-06-24T19:11:04.327Z,19.30
2018-06-24T19:13:31.973Z,19.40
2018-06-24T19:15:59.631Z,19.40
2018-06-24T19:18:27.396Z,19.40
2018-06-24T19:20:55.256Z,19.40
2018-06-24T19:23:23.244Z,19.40
2018-06-24T19:25:51.035Z,19.30
2018-06-24T19:28:18.683Z,19.30
2018-06-24T19:30:46.404Z,19.30
2018-06-24T19:33:13.988Z,19.30
2018-06-24T19:35:41.670Z,19.20
2018-06-24T19:38:09.274Z,19.10
2018-06-24T19:40:36.952Z,19.10
2018-06-24T19:45:32.984Z,19.00
2018-06-24T19:50:30.819Z,19.00
2018-06-24T19:52:58.823Z,19.00
2018-06-24T19:55:26.656Z,18.90
2018-06-24T19:57:54.379Z,18.70
2018-06-24T20:00:22.028Z,18.60
2018-06-24T20:02:49.661Z,18.60
2018-06-24T20:05:17.617Z,18.60
2018-06-24T20:07:45.252Z,18.60
2018-06-24T20:10:12.951Z,18.50
2018-06-24T20:12:40.643Z,18.50
2018-06-24T20:15:08.340Z,18.40
2018-06-24T20:17:36.046Z,18.40
2018-06-24T20:20:04.252Z,18.30
2018-06-24T20:22:36.858Z,18.30
2018-06-24T20:25:05.245Z,18.20
2018-06-24T20:27:33.869Z,18.30
2018-06-24T20:30:02.056Z,18.20
2018-06-24T20:32:29.756Z,18.20
2018-06-24T20:34:57.421Z,18.10
2018-06-24T20:37:25.030Z,18.00
2018-06-24T20:39:52.717Z,18.00
2018-06-24T20:42:20.520Z,18.00
2018-06-24T20:44:48.069Z,18.00
2018-06-24T20:47:15.801Z,17.90
2018-06-24T20:49:43.477Z,17.80
2018-06-24T20:52:11.188Z,17.80
2018-06-24T20:54:38.808Z,17.80
2018-06-24T20:57:06.679Z,17.90
2018-06-24T20:59:34.409Z,17.90
2018-06-24T21:02:02.064Z,17.90
2018-06-24T21:04:29.635Z,17.90
2018-06-24T21:06:57.318Z,17.90
2018-06-24T21:09:25.051Z,17.90
2018-06-24T21:11:52.660Z,17.90
2018-06-24T21:14:20.437Z,17.90
2018-06-24T21:16:48.447Z,17.80
2018-06-24T21:19:16.260Z,17.80
2018-06-24T21:21:44.323Z,17.80
2018-06-24T21:24:12.251Z,17.80
2018-06-24T21:26:40.084Z,17.70
2018-06-24T21:29:07.777Z,17.70
2018-06-24T21:31:35.684Z,17.50
2018-06-24T21:34:03.431Z,17.50
2018-06-24T21:36:31.066Z,17.50
2018-06-24T21:41:26.185Z,17.50
2018-06-24T21:43:53.879Z,17.50
2018-06-24T21:46:22.591Z,17.50
2018-06-24T21:48:50.384Z,17.60
2018-06-24T21:51:18.433Z,17.60
2018-06-24T21:53:46.320Z,17.50
2018-06-24T21:56:14.013Z,17.50
2018-06-24T21:58:41.883Z,17.50
2018-06-24T22:01:09.557Z,17.50
2018-06-24T22:03:37.220Z,17.50
2018-06-24T22:06:04.880Z,17.50
2018-06-24T22:08:32.474Z,17.40
2018-06-24T22:11:00.307Z,17.40
2018-06-24T22:13:28.040Z,17.40
2018-06-24T22:15:55.690Z,17.30
2018-06-24T22:18:24.395Z,17.20
2018-06-24T22:20:52.047Z,17.10
2018-06-24T22:23:20.031Z,17.00
2018-06-24T22:25:47.602Z,16.90
2018-06-24T22:30:49.722Z,16.90
2018-06-24T22:33:17.375Z,16.90
2018-06-24T22:35:45.113Z,16.90
2018-06-24T22:38:12.828Z,17.00
2018-06-24T22:40:40.628Z,17.00
2018-06-24T22:43:08.427Z,17.00
2018-06-24T22:45:36.164Z,17.00
2018-06-24T22:48:03.853Z,17.00
2018-06-24T22:50:33.421Z,17.00
2018-06-24T22:53:01.418Z,17.00
2018-06-24T22:55:29.352Z,17.00
2018-06-24T22:57:57.543Z,16.90
2018-06-24T23:00:25.974Z,17.00
2018-06-24T23:02:53.765Z,16.90
2018-06-24T23:05:21.347Z,16.90
2018-06-24T23:07:49.285Z,16.90
2018-06-24T23:12:44.436Z,16.90
2018-06-24T23:15:12.040Z,16.80
2018-06-24T23:17:40.060Z,16.80
2018-06-24T23:20:08.662Z,16.80
2018-06-24T23:22:36.284Z,16.80
2018-06-24T23:25:04.278Z,16.80
2018-06-24T23:27:32.024Z,16.80
2018-06-24T23:30:00.404Z,16.80
2018-06-24T23:32:28.199Z,16.70
2018-06-24T23:34:55.879Z,16.80
2018-06-24T23:37:23.453Z,16.80
2018-06-24T23:39:51.070Z,16.80
2018-06-24T23:42:18.596Z,16.80
2018-06-24T23:44:46.275Z,16.80
2018-06-24T23:47:13.880Z,16.80
2018-06-24T23:49:41.552Z,16.80
2018-06-24T23:52:09.256Z,16.80
2018-06-24T23:54:36.896Z,16.80
2018-06-24T23:57:05.125Z,16.80
2018-06-24T23:59:33.160Z,16.70
